sensor_id;sensor_type;location;lat;lon;timestamp;P1;durP1;ratioP1;P2;durP2;ratioP2
77854;SDS011;67046;50.088;14.336;2023-04-24T00:00:26;4.20;;;2.90;;
77854;SDS011;67046;50.088;14.336;2023-04-24T00:01:18;4.20;;;2.80;;
77854;SDS011;67046;50.088;14.336;2023-04-24T00:01:50;5.30;;;3.60;;
77854;SDS011;67046;50.088;14.336;2023-04-24T00:02:21;4.50;;;3.50;;
77854;SDS011;67046;50.088;14.336;2023-04-24T00:02:52;4.90;;;3.20;;
77854;SDS011;67046;50.088;14.336;2023-04-24T00:03:27;3.80;;;3.00;;
77854;SDS011;67046;50.088;14.336;2023-04-24T00:03:59;4.40;;;3.00;;
77854;SDS011;67046;50.088;14.336;2023-04-24T00:04:31;3.10;;;2.60;;
77854;SDS011;67046;50.088;14.336;2023-04-24T00:05:02;4.10;;;2.70;;
77854;SDS011;67046;50.088;14.336;2023-04-24T00:05:35;4.10;;;2.80;;
77854;SDS011;67046;50.088;14.336;2023-04-24T00:06:06;4.70;;;2.90;;
77854;SDS011;67046;50.088;14.336;2023-04-24T00:06:39;3.80;;;2.40;;
77854;SDS011;67046;50.088;14.336;2023-04-24T00:07:13;3.50;;;2.50;;
77854;SDS011;67046;50.088;14.336;2023-04-24T00:07:45;3.70;;;2.80;;
77854;SDS011;67046;50.088;14.336;2023-04-24T00:08:16;3.40;;;2.40;;
77854;SDS011;67046;50.088;14.336;2023-04-24T00:08:48;3.50;;;2.70;;
77854;SDS011;67046;50.088;14.336;2023-04-24T00:09:19;3.20;;;2.20;;
77854;SDS011;67046;50.088;14.336;2023-04-24T00:09:50;3.60;;;2.70;;
77854;SDS011;67046;50.088;14.336;2023-04-24T00:10:21;4.90;;;3.00;;
77854;SDS011;67046;50.088;14.336;2023-04-24T00:10:53;2.70;;;2.20;;
77854;SDS011;67046;50.088;14.336;2023-04-24T00:11:24;5.00;;;2.30;;
77854;SDS011;67046;50.088;14.336;2023-04-24T00:11:55;4.60;;;2.40;;
77854;SDS011;67046;50.088;14.336;2023-04-24T00:12:27;3.30;;;2.20;;
77854;SDS011;67046;50.088;14.336;2023-04-24T00:12:58;4.80;;;2.60;;
77854;SDS011;67046;50.088;14.336;2023-04-24T00:13:29;3.10;;;2.30;;
77854;SDS011;67046;50.088;14.336;2023-04-24T00:14:01;4.60;;;2.20;;
77854;SDS011;67046;50.088;14.336;2023-04-24T00:14:33;4.50;;;2.30;;
77854;SDS011;67046;50.088;14.336;2023-04-24T00:15:06;3.20;;;2.00;;
77854;SDS011;67046;50.088;14.336;2023-04-24T00:15:37;2.80;;;2.20;;
77854;SDS011;67046;50.088;14.336;2023-04-24T00:16:09;3.10;;;1.80;;
77854;SDS011;67046;50.088;14.336;2023-04-24T00:16:40;3.40;;;2.00;;
77854;SDS011;67046;50.088;14.336;2023-04-24T00:17:11;2.70;;;1.80;;
77854;SDS011;67046;50.088;14.336;2023-04-24T00:17:43;2.30;;;1.70;;
77854;SDS011;67046;50.088;14.336;2023-04-24T00:18:14;2.70;;;1.80;;
77854;SDS011;67046;50.088;14.336;2023-04-24T00:18:45;4.30;;;2.10;;
77854;SDS011;67046;50.088;14.336;2023-04-24T00:19:18;3.30;;;1.70;;
77854;SDS011;67046;50.088;14.336;2023-04-24T00:19:52;2.90;;;1.70;;
77854;SDS011;67046;50.088;14.336;2023-04-24T00:20:29;1.90;;;1.50;;
77854;SDS011;67046;50.088;14.336;2023-04-24T00:21:00;3.70;;;1.90;;
77854;SDS011;67046;50.088;14.336;2023-04-24T00:21:31;2.30;;;1.80;;
77854;SDS011;67046;50.088;14.336;2023-04-24T00:22:03;3.10;;;1.70;;
77854;SDS011;67046;50.088;14.336;2023-04-24T00:22:34;2.30;;;1.90;;
77854;SDS011;67046;50.088;14.336;2023-04-24T00:23:06;2.90;;;1.70;;
77854;SDS011;67046;50.088;14.336;2023-04-24T00:23:37;2.40;;;1.50;;
77854;SDS011;67046;50.088;14.336;2023-04-24T00:24:08;2.30;;;1.50;;
77854;SDS011;67046;50.088;14.336;2023-04-24T00:24:40;2.10;;;1.60;;
77854;SDS011;67046;50.088;14.336;2023-04-24T00:25:11;2.90;;;1.70;;
77854;SDS011;67046;50.088;14.336;2023-04-24T00:25:43;3.60;;;1.50;;
77854;SDS011;67046;50.088;14.336;2023-04-24T00:26:14;2.50;;;1.60;;
77854;SDS011;67046;50.088;14.336;2023-04-24T00:26:45;2.10;;;1.50;;
77854;SDS011;67046;50.088;14.336;2023-04-24T00:27:17;2.50;;;1.60;;
77854;SDS011;67046;50.088;14.336;2023-04-24T00:27:48;2.50;;;1.40;;
77854;SDS011;67046;50.088;14.336;2023-04-24T00:28:20;3.40;;;1.80;;
77854;SDS011;67046;50.088;14.336;2023-04-24T00:28:51;3.60;;;2.10;;
77854;SDS011;67046;50.088;14.336;2023-04-24T00:29:22;2.90;;;1.80;;
77854;SDS011;67046;50.088;14.336;2023-04-24T00:29:54;2.50;;;1.80;;
77854;SDS011;67046;50.088;14.336;2023-04-24T00:30:25;2.00;;;1.40;;
77854;SDS011;67046;50.088;14.336;2023-04-24T00:30:56;2.50;;;1.50;;
77854;SDS011;67046;50.088;14.336;2023-04-24T00:31:27;3.40;;;1.50;;
77854;SDS011;67046;50.088;14.336;2023-04-24T00:31:59;1.60;;;1.40;;
77854;SDS011;67046;50.088;14.336;2023-04-24T00:32:30;2.70;;;1.60;;
77854;SDS011;67046;50.088;14.336;2023-04-24T00:33:01;3.30;;;1.70;;
77854;SDS011;67046;50.088;14.336;2023-04-24T00:33:33;3.40;;;1.40;;
77854;SDS011;67046;50.088;14.336;2023-04-24T00:34:04;3.00;;;1.70;;
77854;SDS011;67046;50.088;14.336;2023-04-24T00:34:36;3.10;;;1.40;;
77854;SDS011;67046;50.088;14.336;2023-04-24T00:35:07;3.70;;;1.40;;
77854;SDS011;67046;50.088;14.336;2023-04-24T00:35:39;2.90;;;1.70;;
77854;SDS011;67046;50.088;14.336;2023-04-24T00:36:10;2.40;;;1.70;;
77854;SDS011;67046;50.088;14.336;2023-04-24T00:36:42;2.60;;;1.70;;
77854;SDS011;67046;50.088;14.336;2023-04-24T00:37:13;2.30;;;1.60;;
77854;SDS011;67046;50.088;14.336;2023-04-24T00:37:44;3.40;;;1.50;;
77854;SDS011;67046;50.088;14.336;2023-04-24T00:38:16;2.50;;;1.80;;
77854;SDS011;67046;50.088;14.336;2023-04-24T00:38:47;4.30;;;1.80;;
77854;SDS011;67046;50.088;14.336;2023-04-24T00:39:19;2.60;;;1.80;;
77854;SDS011;67046;50.088;14.336;2023-04-24T00:39:50;2.10;;;1.50;;
77854;SDS011;67046;50.088;14.336;2023-04-24T00:40:21;3.40;;;2.00;;
77854;SDS011;67046;50.088;14.336;2023-04-24T00:40:53;2.80;;;1.90;;
77854;SDS011;67046;50.088;14.336;2023-04-24T00:41:25;3.60;;;2.40;;
77854;SDS011;67046;50.088;14.336;2023-04-24T00:41:56;3.90;;;2.10;;
77854;SDS011;67046;50.088;14.336;2023-04-24T00:42:28;2.70;;;1.80;;
77854;SDS011;67046;50.088;14.336;2023-04-24T00:42:59;2.30;;;1.80;;
77854;SDS011;67046;50.088;14.336;2023-04-24T00:43:31;2.70;;;1.60;;
77854;SDS011;67046;50.088;14.336;2023-04-24T00:44:02;2.90;;;1.90;;
77854;SDS011;67046;50.088;14.336;2023-04-24T00:44:33;3.30;;;1.80;;
77854;SDS011;67046;50.088;14.336;2023-04-24T00:45:05;3.20;;;2.00;;
77854;SDS011;67046;50.088;14.336;2023-04-24T00:45:37;3.10;;;1.70;;
77854;SDS011;67046;50.088;14.336;2023-04-24T00:46:09;2.90;;;1.70;;
77854;SDS011;67046;50.088;14.336;2023-04-24T00:46:42;3.50;;;1.60;;
77854;SDS011;67046;50.088;14.336;2023-04-24T00:47:13;2.70;;;1.50;;
77854;SDS011;67046;50.088;14.336;2023-04-24T00:47:45;2.60;;;1.70;;
77854;SDS011;67046;50.088;14.336;2023-04-24T00:48:49;3.10;;;1.60;;
77854;SDS011;67046;50.088;14.336;2023-04-24T00:49:52;2.40;;;1.30;;
77854;SDS011;67046;50.088;14.336;2023-04-24T00:50:24;2.40;;;1.50;;
77854;SDS011;67046;50.088;14.336;2023-04-24T00:50:56;2.80;;;1.30;;
77854;SDS011;67046;50.088;14.336;2023-04-24T00:51:28;2.30;;;1.40;;
77854;SDS011;67046;50.088;14.336;2023-04-24T00:52:01;2.80;;;1.30;;
77854;SDS011;67046;50.088;14.336;2023-04-24T00:52:33;3.80;;;1.60;;
77854;SDS011;67046;50.088;14.336;2023-04-24T00:53:04;2.90;;;1.70;;
77854;SDS011;67046;50.088;14.336;2023-04-24T00:53:35;3.20;;;1.70;;
77854;SDS011;67046;50.088;14.336;2023-04-24T00:54:06;2.80;;;1.70;;
77854;SDS011;67046;50.088;14.336;2023-04-24T00:54:38;2.40;;;1.60;;
77854;SDS011;67046;50.088;14.336;2023-04-24T00:55:11;2.30;;;1.60;;
77854;SDS011;67046;50.088;14.336;2023-04-24T00:55:42;2.20;;;1.70;;
77854;SDS011;67046;50.088;14.336;2023-04-24T00:56:13;2.80;;;2.00;;
77854;SDS011;67046;50.088;14.336;2023-04-24T00:56:45;2.30;;;1.70;;
77854;SDS011;67046;50.088;14.336;2023-04-24T00:57:17;2.40;;;1.60;;
77854;SDS011;67046;50.088;14.336;2023-04-24T00:57:48;3.00;;;1.80;;
77854;SDS011;67046;50.088;14.336;2023-04-24T00:58:20;3.00;;;1.70;;
77854;SDS011;67046;50.088;14.336;2023-04-24T00:58:51;2.80;;;1.50;;
77854;SDS011;67046;50.088;14.336;2023-04-24T00:59:23;3.90;;;1.50;;
77854;SDS011;67046;50.088;14.336;2023-04-24T00:59:54;2.60;;;1.50;;
77854;SDS011;67046;50.088;14.336;2023-04-24T01:00:26;1.80;;;1.50;;
77854;SDS011;67046;50.088;14.336;2023-04-24T01:00:57;2.60;;;1.80;;
77854;SDS011;67046;50.088;14.336;2023-04-24T01:01:29;3.20;;;2.10;;
77854;SDS011;67046;50.088;14.336;2023-04-24T01:02:01;2.20;;;1.50;;
77854;SDS011;67046;50.088;14.336;2023-04-24T01:02:32;3.00;;;1.50;;
77854;SDS011;67046;50.088;14.336;2023-04-24T01:03:05;3.20;;;1.50;;
77854;SDS011;67046;50.088;14.336;2023-04-24T01:03:37;2.70;;;1.60;;
77854;SDS011;67046;50.088;14.336;2023-04-24T01:04:09;2.70;;;1.50;;
77854;SDS011;67046;50.088;14.336;2023-04-24T01:04:42;4.60;;;1.60;;
77854;SDS011;67046;50.088;14.336;2023-04-24T01:05:14;2.40;;;1.50;;
77854;SDS011;67046;50.088;14.336;2023-04-24T01:05:48;2.00;;;1.20;;
77854;SDS011;67046;50.088;14.336;2023-04-24T01:06:20;2.10;;;1.60;;
77854;SDS011;67046;50.088;14.336;2023-04-24T01:07:26;2.70;;;1.40;;
77854;SDS011;67046;50.088;14.336;2023-04-24T01:07:58;5.40;;;1.90;;
77854;SDS011;67046;50.088;14.336;2023-04-24T01:08:30;3.80;;;1.80;;
77854;SDS011;67046;50.088;14.336;2023-04-24T01:09:02;3.40;;;1.90;;
77854;SDS011;67046;50.088;14.336;2023-04-24T01:09:33;2.80;;;1.50;;
77854;SDS011;67046;50.088;14.336;2023-04-24T01:10:06;3.50;;;1.80;;
77854;SDS011;67046;50.088;14.336;2023-04-24T01:10:39;2.50;;;1.30;;
77854;SDS011;67046;50.088;14.336;2023-04-24T01:11:12;2.50;;;1.80;;
77854;SDS011;67046;50.088;14.336;2023-04-24T01:11:43;2.50;;;1.80;;
77854;SDS011;67046;50.088;14.336;2023-04-24T01:12:15;2.40;;;1.40;;
77854;SDS011;67046;50.088;14.336;2023-04-24T01:12:46;2.30;;;1.50;;
77854;SDS011;67046;50.088;14.336;2023-04-24T01:13:17;3.20;;;1.50;;
77854;SDS011;67046;50.088;14.336;2023-04-24T01:13:52;2.30;;;1.50;;
77854;SDS011;67046;50.088;14.336;2023-04-24T01:14:23;2.80;;;1.60;;
77854;SDS011;67046;50.088;14.336;2023-04-24T01:14:56;2.20;;;1.40;;
77854;SDS011;67046;50.088;14.336;2023-04-24T01:15:27;1.90;;;1.30;;
77854;SDS011;67046;50.088;14.336;2023-04-24T01:15:59;2.00;;;1.40;;
77854;SDS011;67046;50.088;14.336;2023-04-24T01:16:31;2.20;;;1.40;;
77854;SDS011;67046;50.088;14.336;2023-04-24T01:17:03;2.80;;;1.40;;
77854;SDS011;67046;50.088;14.336;2023-04-24T01:17:34;3.20;;;1.40;;
77854;SDS011;67046;50.088;14.336;2023-04-24T01:18:06;2.90;;;1.50;;
77854;SDS011;67046;50.088;14.336;2023-04-24T01:18:38;3.00;;;1.50;;
77854;SDS011;67046;50.088;14.336;2023-04-24T01:19:09;2.10;;;1.20;;
77854;SDS011;67046;50.088;14.336;2023-04-24T01:19:42;2.80;;;1.50;;
77854;SDS011;67046;50.088;14.336;2023-04-24T01:20:15;2.40;;;1.60;;
77854;SDS011;67046;50.088;14.336;2023-04-24T01:20:48;2.40;;;1.40;;
77854;SDS011;67046;50.088;14.336;2023-04-24T01:21:24;2.10;;;1.10;;
77854;SDS011;67046;50.088;14.336;2023-04-24T01:21:59;2.60;;;1.20;;
77854;SDS011;67046;50.088;14.336;2023-04-24T01:22:33;2.50;;;1.10;;
77854;SDS011;67046;50.088;14.336;2023-04-24T01:23:06;2.20;;;1.10;;
77854;SDS011;67046;50.088;14.336;2023-04-24T01:23:37;2.20;;;1.30;;
77854;SDS011;67046;50.088;14.336;2023-04-24T01:24:09;2.10;;;1.20;;
77854;SDS011;67046;50.088;14.336;2023-04-24T01:24:41;4.40;;;1.40;;
77854;SDS011;67046;50.088;14.336;2023-04-24T01:25:13;2.40;;;1.30;;
77854;SDS011;67046;50.088;14.336;2023-04-24T01:25:44;2.80;;;1.50;;
77854;SDS011;67046;50.088;14.336;2023-04-24T01:26:17;2.10;;;1.00;;
77854;SDS011;67046;50.088;14.336;2023-04-24T01:26:51;2.60;;;1.30;;
77854;SDS011;67046;50.088;14.336;2023-04-24T01:27:22;2.30;;;1.30;;
77854;SDS011;67046;50.088;14.336;2023-04-24T01:27:53;2.00;;;1.20;;
77854;SDS011;67046;50.088;14.336;2023-04-24T01:28:25;1.60;;;1.10;;
77854;SDS011;67046;50.088;14.336;2023-04-24T01:28:57;2.20;;;1.30;;
77854;SDS011;67046;50.088;14.336;2023-04-24T01:29:28;1.90;;;1.00;;
77854;SDS011;67046;50.088;14.336;2023-04-24T01:29:59;2.10;;;1.40;;
77854;SDS011;67046;50.088;14.336;2023-04-24T01:30:31;5.10;;;1.50;;
77854;SDS011;67046;50.088;14.336;2023-04-24T01:31:03;3.30;;;1.50;;
77854;SDS011;67046;50.088;14.336;2023-04-24T01:31:34;2.60;;;1.40;;
77854;SDS011;67046;50.088;14.336;2023-04-24T01:32:06;2.70;;;1.20;;
77854;SDS011;67046;50.088;14.336;2023-04-24T01:32:38;1.70;;;1.00;;
77854;SDS011;67046;50.088;14.336;2023-04-24T01:33:10;1.80;;;1.00;;
77854;SDS011;67046;50.088;14.336;2023-04-24T01:33:42;3.40;;;1.40;;
77854;SDS011;67046;50.088;14.336;2023-04-24T01:34:14;1.90;;;1.10;;
77854;SDS011;67046;50.088;14.336;2023-04-24T01:34:45;2.70;;;1.20;;
77854;SDS011;67046;50.088;14.336;2023-04-24T01:35:18;3.30;;;1.40;;
77854;SDS011;67046;50.088;14.336;2023-04-24T01:35:49;2.10;;;1.20;;
77854;SDS011;67046;50.088;14.336;2023-04-24T01:36:21;2.20;;;1.20;;
77854;SDS011;67046;50.088;14.336;2023-04-24T01:36:53;1.80;;;1.20;;
77854;SDS011;67046;50.088;14.336;2023-04-24T01:37:24;3.60;;;1.40;;
77854;SDS011;67046;50.088;14.336;2023-04-24T01:37:57;2.00;;;0.90;;
77854;SDS011;67046;50.088;14.336;2023-04-24T01:38:28;4.70;;;1.20;;
77854;SDS011;67046;50.088;14.336;2023-04-24T01:39:00;4.00;;;1.40;;
77854;SDS011;67046;50.088;14.336;2023-04-24T01:39:31;1.90;;;1.10;;
77854;SDS011;67046;50.088;14.336;2023-04-24T01:40:05;3.30;;;1.40;;
77854;SDS011;67046;50.088;14.336;2023-04-24T01:40:37;4.30;;;1.40;;
77854;SDS011;67046;50.088;14.336;2023-04-24T01:41:09;2.10;;;1.30;;
77854;SDS011;67046;50.088;14.336;2023-04-24T01:41:41;3.90;;;1.60;;
77854;SDS011;67046;50.088;14.336;2023-04-24T01:42:12;2.00;;;1.30;;
77854;SDS011;67046;50.088;14.336;2023-04-24T01:42:45;2.20;;;1.40;;
77854;SDS011;67046;50.088;14.336;2023-04-24T01:43:16;1.90;;;1.20;;
77854;SDS011;67046;50.088;14.336;2023-04-24T01:43:48;3.40;;;1.70;;
77854;SDS011;67046;50.088;14.336;2023-04-24T01:44:20;3.30;;;1.50;;
77854;SDS011;67046;50.088;14.336;2023-04-24T01:44:52;2.20;;;1.20;;
77854;SDS011;67046;50.088;14.336;2023-04-24T01:45:24;3.60;;;1.40;;
77854;SDS011;67046;50.088;14.336;2023-04-24T01:45:56;2.10;;;1.40;;
77854;SDS011;67046;50.088;14.336;2023-04-24T01:46:27;2.30;;;1.10;;
77854;SDS011;67046;50.088;14.336;2023-04-24T01:47:00;2.60;;;1.30;;
77854;SDS011;67046;50.088;14.336;2023-04-24T01:47:31;2.10;;;1.20;;
77854;SDS011;67046;50.088;14.336;2023-04-24T01:48:03;2.60;;;1.30;;
77854;SDS011;67046;50.088;14.336;2023-04-24T01:48:35;2.10;;;1.10;;
77854;SDS011;67046;50.088;14.336;2023-04-24T01:49:06;2.60;;;1.50;;
77854;SDS011;67046;50.088;14.336;2023-04-24T01:49:38;2.10;;;1.20;;
77854;SDS011;67046;50.088;14.336;2023-04-24T01:50:09;3.20;;;1.60;;
77854;SDS011;67046;50.088;14.336;2023-04-24T01:50:41;3.10;;;1.40;;
77854;SDS011;67046;50.088;14.336;2023-04-24T01:51:12;2.90;;;1.50;;
77854;SDS011;67046;50.088;14.336;2023-04-24T01:51:43;3.10;;;1.40;;
77854;SDS011;67046;50.088;14.336;2023-04-24T01:52:15;2.30;;;1.70;;
77854;SDS011;67046;50.088;14.336;2023-04-24T01:52:48;2.20;;;1.20;;
77854;SDS011;67046;50.088;14.336;2023-04-24T01:53:19;2.20;;;1.60;;
77854;SDS011;67046;50.088;14.336;2023-04-24T01:53:50;3.20;;;1.50;;
77854;SDS011;67046;50.088;14.336;2023-04-24T01:54:22;2.10;;;1.30;;
77854;SDS011;67046;50.088;14.336;2023-04-24T01:54:53;2.90;;;1.30;;
77854;SDS011;67046;50.088;14.336;2023-04-24T01:55:26;2.60;;;1.30;;
77854;SDS011;67046;50.088;14.336;2023-04-24T01:55:58;5.20;;;1.30;;
77854;SDS011;67046;50.088;14.336;2023-04-24T01:56:29;3.50;;;1.40;;
77854;SDS011;67046;50.088;14.336;2023-04-24T01:57:01;2.10;;;1.30;;
77854;SDS011;67046;50.088;14.336;2023-04-24T01:57:33;2.40;;;1.30;;
77854;SDS011;67046;50.088;14.336;2023-04-24T01:58:05;3.20;;;1.30;;
77854;SDS011;67046;50.088;14.336;2023-04-24T01:58:36;2.60;;;1.30;;
77854;SDS011;67046;50.088;14.336;2023-04-24T01:59:08;2.10;;;1.60;;
77854;SDS011;67046;50.088;14.336;2023-04-24T01:59:41;4.00;;;1.20;;
77854;SDS011;67046;50.088;14.336;2023-04-24T02:00:12;5.10;;;1.60;;
77854;SDS011;67046;50.088;14.336;2023-04-24T02:00:44;2.70;;;1.20;;
77854;SDS011;67046;50.088;14.336;2023-04-24T02:01:18;3.00;;;1.20;;
77854;SDS011;67046;50.088;14.336;2023-04-24T02:01:50;4.30;;;1.70;;
77854;SDS011;67046;50.088;14.336;2023-04-24T02:02:22;3.40;;;1.30;;
77854;SDS011;67046;50.088;14.336;2023-04-24T02:02:54;2.20;;;1.30;;
77854;SDS011;67046;50.088;14.336;2023-04-24T02:03:26;2.40;;;1.20;;
77854;SDS011;67046;50.088;14.336;2023-04-24T02:03:57;1.80;;;1.30;;
77854;SDS011;67046;50.088;14.336;2023-04-24T02:04:29;2.20;;;1.10;;
77854;SDS011;67046;50.088;14.336;2023-04-24T02:05:00;2.60;;;1.30;;
77854;SDS011;67046;50.088;14.336;2023-04-24T02:05:31;1.90;;;1.20;;
77854;SDS011;67046;50.088;14.336;2023-04-24T02:06:03;1.70;;;1.20;;
77854;SDS011;67046;50.088;14.336;2023-04-24T02:06:34;3.30;;;1.50;;
77854;SDS011;67046;50.088;14.336;2023-04-24T02:07:05;2.40;;;1.50;;
77854;SDS011;67046;50.088;14.336;2023-04-24T02:07:37;2.50;;;1.50;;
77854;SDS011;67046;50.088;14.336;2023-04-24T02:08:08;1.50;;;1.00;;
77854;SDS011;67046;50.088;14.336;2023-04-24T02:08:39;1.80;;;1.00;;
77854;SDS011;67046;50.088;14.336;2023-04-24T02:09:10;2.20;;;1.00;;
77854;SDS011;67046;50.088;14.336;2023-04-24T02:09:42;3.00;;;1.20;;
77854;SDS011;67046;50.088;14.336;2023-04-24T02:10:13;2.30;;;1.30;;
77854;SDS011;67046;50.088;14.336;2023-04-24T02:10:44;2.40;;;1.40;;
77854;SDS011;67046;50.088;14.336;2023-04-24T02:11:15;2.20;;;1.20;;
77854;SDS011;67046;50.088;14.336;2023-04-24T02:11:47;2.40;;;1.20;;
77854;SDS011;67046;50.088;14.336;2023-04-24T02:12:18;2.00;;;1.30;;
77854;SDS011;67046;50.088;14.336;2023-04-24T02:12:49;2.50;;;1.00;;
77854;SDS011;67046;50.088;14.336;2023-04-24T02:13:21;1.50;;;1.20;;
77854;SDS011;67046;50.088;14.336;2023-04-24T02:13:52;2.20;;;1.10;;
77854;SDS011;67046;50.088;14.336;2023-04-24T02:14:24;1.30;;;1.10;;
77854;SDS011;67046;50.088;14.336;2023-04-24T02:14:55;1.90;;;1.10;;
77854;SDS011;67046;50.088;14.336;2023-04-24T02:15:27;2.30;;;1.40;;
77854;SDS011;67046;50.088;14.336;2023-04-24T02:15:58;2.00;;;1.00;;
77854;SDS011;67046;50.088;14.336;2023-04-24T02:16:30;2.80;;;1.10;;
77854;SDS011;67046;50.088;14.336;2023-04-24T02:17:03;4.60;;;1.50;;
77854;SDS011;67046;50.088;14.336;2023-04-24T02:17:35;2.40;;;1.10;;
77854;SDS011;67046;50.088;14.336;2023-04-24T02:18:07;1.90;;;1.20;;
77854;SDS011;67046;50.088;14.336;2023-04-24T02:18:38;1.80;;;1.00;;
77854;SDS011;67046;50.088;14.336;2023-04-24T02:19:10;2.40;;;1.40;;
77854;SDS011;67046;50.088;14.336;2023-04-24T02:19:41;2.00;;;1.30;;
77854;SDS011;67046;50.088;14.336;2023-04-24T02:20:12;3.80;;;1.30;;
77854;SDS011;67046;50.088;14.336;2023-04-24T02:20:44;2.10;;;1.00;;
77854;SDS011;67046;50.088;14.336;2023-04-24T02:21:15;2.20;;;1.30;;
77854;SDS011;67046;50.088;14.336;2023-04-24T02:21:47;1.70;;;1.20;;
77854;SDS011;67046;50.088;14.336;2023-04-24T02:22:18;2.30;;;1.60;;
77854;SDS011;67046;50.088;14.336;2023-04-24T02:22:49;1.80;;;1.30;;
77854;SDS011;67046;50.088;14.336;2023-04-24T02:23:21;1.80;;;1.30;;
77854;SDS011;67046;50.088;14.336;2023-04-24T02:23:52;3.50;;;1.50;;
77854;SDS011;67046;50.088;14.336;2023-04-24T02:24:23;1.80;;;1.10;;
77854;SDS011;67046;50.088;14.336;2023-04-24T02:24:54;2.10;;;1.70;;
77854;SDS011;67046;50.088;14.336;2023-04-24T02:25:26;2.70;;;1.30;;
77854;SDS011;67046;50.088;14.336;2023-04-24T02:25:57;2.70;;;1.10;;
77854;SDS011;67046;50.088;14.336;2023-04-24T02:26:28;2.00;;;1.20;;
77854;SDS011;67046;50.088;14.336;2023-04-24T02:27:01;1.90;;;1.20;;
77854;SDS011;67046;50.088;14.336;2023-04-24T02:27:33;1.80;;;1.10;;
77854;SDS011;67046;50.088;14.336;2023-04-24T02:28:04;2.90;;;1.10;;
77854;SDS011;67046;50.088;14.336;2023-04-24T02:28:36;2.10;;;1.10;;
77854;SDS011;67046;50.088;14.336;2023-04-24T02:29:07;1.90;;;1.30;;
77854;SDS011;67046;50.088;14.336;2023-04-24T02:29:38;1.90;;;1.40;;
77854;SDS011;67046;50.088;14.336;2023-04-24T02:30:10;2.60;;;1.20;;
77854;SDS011;67046;50.088;14.336;2023-04-24T02:30:41;2.00;;;1.50;;
77854;SDS011;67046;50.088;14.336;2023-04-24T02:31:12;2.20;;;1.30;;
77854;SDS011;67046;50.088;14.336;2023-04-24T02:31:43;1.90;;;1.40;;
77854;SDS011;67046;50.088;14.336;2023-04-24T02:32:15;2.70;;;1.20;;
77854;SDS011;67046;50.088;14.336;2023-04-24T02:32:46;1.80;;;1.30;;
77854;SDS011;67046;50.088;14.336;2023-04-24T02:33:18;1.50;;;1.10;;
77854;SDS011;67046;50.088;14.336;2023-04-24T02:33:49;2.10;;;1.20;;
77854;SDS011;67046;50.088;14.336;2023-04-24T02:34:20;2.50;;;1.30;;
77854;SDS011;67046;50.088;14.336;2023-04-24T02:34:52;1.60;;;1.10;;
77854;SDS011;67046;50.088;14.336;2023-04-24T02:35:23;2.10;;;1.30;;
77854;SDS011;67046;50.088;14.336;2023-04-24T02:35:54;2.10;;;1.40;;
77854;SDS011;67046;50.088;14.336;2023-04-24T02:36:25;2.10;;;1.60;;
77854;SDS011;67046;50.088;14.336;2023-04-24T02:36:57;3.80;;;1.00;;
77854;SDS011;67046;50.088;14.336;2023-04-24T02:37:28;3.40;;;1.30;;
77854;SDS011;67046;50.088;14.336;2023-04-24T02:37:59;2.20;;;1.50;;
77854;SDS011;67046;50.088;14.336;2023-04-24T02:38:30;1.90;;;1.20;;
77854;SDS011;67046;50.088;14.336;2023-04-24T02:39:02;2.30;;;1.50;;
77854;SDS011;67046;50.088;14.336;2023-04-24T02:40:05;2.20;;;1.00;;
77854;SDS011;67046;50.088;14.336;2023-04-24T02:40:38;1.60;;;1.10;;
77854;SDS011;67046;50.088;14.336;2023-04-24T02:41:09;1.80;;;0.90;;
77854;SDS011;67046;50.088;14.336;2023-04-24T02:41:40;2.10;;;1.10;;
77854;SDS011;67046;50.088;14.336;2023-04-24T02:42:12;2.90;;;1.20;;
77854;SDS011;67046;50.088;14.336;2023-04-24T02:42:43;2.50;;;1.40;;
77854;SDS011;67046;50.088;14.336;2023-04-24T02:43:14;1.80;;;1.30;;
77854;SDS011;67046;50.088;14.336;2023-04-24T02:43:45;2.20;;;1.30;;
77854;SDS011;67046;50.088;14.336;2023-04-24T02:44:16;1.70;;;1.20;;
77854;SDS011;67046;50.088;14.336;2023-04-24T02:44:48;1.40;;;1.00;;
77854;SDS011;67046;50.088;14.336;2023-04-24T02:45:21;2.00;;;1.40;;
77854;SDS011;67046;50.088;14.336;2023-04-24T02:45:52;2.20;;;1.20;;
77854;SDS011;67046;50.088;14.336;2023-04-24T02:46:24;1.70;;;0.80;;
77854;SDS011;67046;50.088;14.336;2023-04-24T02:46:56;2.80;;;1.30;;
77854;SDS011;67046;50.088;14.336;2023-04-24T02:47:27;4.50;;;1.90;;
77854;SDS011;67046;50.088;14.336;2023-04-24T02:47:58;3.20;;;1.30;;
77854;SDS011;67046;50.088;14.336;2023-04-24T02:48:29;2.80;;;1.50;;
77854;SDS011;67046;50.088;14.336;2023-04-24T02:49:01;2.50;;;1.20;;
77854;SDS011;67046;50.088;14.336;2023-04-24T02:49:32;2.90;;;1.30;;
77854;SDS011;67046;50.088;14.336;2023-04-24T02:50:04;1.90;;;1.30;;
77854;SDS011;67046;50.088;14.336;2023-04-24T02:50:36;2.30;;;1.20;;
77854;SDS011;67046;50.088;14.336;2023-04-24T02:51:07;3.10;;;1.20;;
77854;SDS011;67046;50.088;14.336;2023-04-24T02:51:39;1.70;;;1.30;;
77854;SDS011;67046;50.088;14.336;2023-04-24T02:52:12;1.80;;;1.10;;
77854;SDS011;67046;50.088;14.336;2023-04-24T02:52:43;1.60;;;1.40;;
77854;SDS011;67046;50.088;14.336;2023-04-24T02:53:15;2.20;;;1.20;;
77854;SDS011;67046;50.088;14.336;2023-04-24T02:53:46;2.00;;;1.40;;
77854;SDS011;67046;50.088;14.336;2023-04-24T02:54:17;2.60;;;1.20;;
77854;SDS011;67046;50.088;14.336;2023-04-24T02:54:49;2.30;;;1.50;;
77854;SDS011;67046;50.088;14.336;2023-04-24T02:55:20;2.30;;;1.30;;
77854;SDS011;67046;50.088;14.336;2023-04-24T02:55:52;3.10;;;1.30;;
77854;SDS011;67046;50.088;14.336;2023-04-24T02:56:23;2.10;;;1.20;;
77854;SDS011;67046;50.088;14.336;2023-04-24T02:56:54;2.10;;;1.10;;
77854;SDS011;67046;50.088;14.336;2023-04-24T02:57:25;2.20;;;1.50;;
77854;SDS011;67046;50.088;14.336;2023-04-24T02:57:57;3.00;;;1.60;;
77854;SDS011;67046;50.088;14.336;2023-04-24T02:58:28;1.50;;;1.00;;
77854;SDS011;67046;50.088;14.336;2023-04-24T02:59:00;3.50;;;1.30;;
77854;SDS011;67046;50.088;14.336;2023-04-24T02:59:31;4.60;;;1.00;;
77854;SDS011;67046;50.088;14.336;2023-04-24T03:00:02;2.40;;;1.20;;
77854;SDS011;67046;50.088;14.336;2023-04-24T03:00:37;1.80;;;1.00;;
77854;SDS011;67046;50.088;14.336;2023-04-24T03:01:09;2.10;;;1.00;;
77854;SDS011;67046;50.088;14.336;2023-04-24T03:01:40;2.50;;;1.50;;
77854;SDS011;67046;50.088;14.336;2023-04-24T03:02:12;3.60;;;1.30;;
77854;SDS011;67046;50.088;14.336;2023-04-24T03:02:43;2.20;;;1.20;;
77854;SDS011;67046;50.088;14.336;2023-04-24T03:03:14;2.80;;;1.60;;
77854;SDS011;67046;50.088;14.336;2023-04-24T03:03:45;1.70;;;1.30;;
77854;SDS011;67046;50.088;14.336;2023-04-24T03:04:17;1.60;;;1.20;;
77854;SDS011;67046;50.088;14.336;2023-04-24T03:04:50;2.10;;;1.10;;
77854;SDS011;67046;50.088;14.336;2023-04-24T03:05:21;2.10;;;1.30;;
77854;SDS011;67046;50.088;14.336;2023-04-24T03:05:53;3.50;;;1.10;;
77854;SDS011;67046;50.088;14.336;2023-04-24T03:06:24;1.90;;;1.30;;
77854;SDS011;67046;50.088;14.336;2023-04-24T03:06:55;3.20;;;1.30;;
77854;SDS011;67046;50.088;14.336;2023-04-24T03:07:27;2.60;;;1.30;;
77854;SDS011;67046;50.088;14.336;2023-04-24T03:07:58;2.20;;;1.40;;
77854;SDS011;67046;50.088;14.336;2023-04-24T03:08:29;2.60;;;1.30;;
77854;SDS011;67046;50.088;14.336;2023-04-24T03:09:00;1.90;;;1.20;;
77854;SDS011;67046;50.088;14.336;2023-04-24T03:09:32;1.90;;;1.30;;
77854;SDS011;67046;50.088;14.336;2023-04-24T03:10:03;1.70;;;1.40;;
77854;SDS011;67046;50.088;14.336;2023-04-24T03:10:36;2.40;;;1.30;;